sensor_id;sensor_type;location;lat;lon;timestamp;P1;durP1;ratioP1;P2;durP2;ratioP2
28009;SDS011;15334;49.494;8.410;2023-07-08T00:02:15;13.75;;;6.15;;
28009;SDS011;15334;49.494;8.410;2023-07-08T00:04:43;15.07;;;6.55;;
28009;SDS011;15334;49.494;8.410;2023-07-08T00:07:11;15.80;;;6.45;;
28009;SDS011;15334;49.494;8.410;2023-07-08T00:09:43;12.80;;;5.88;;
28009;SDS011;15334;49.494;8.410;2023-07-08T00:12:11;16.45;;;7.07;;
28009;SDS011;15334;49.494;8.410;2023-07-08T00:14:39;12.43;;;5.63;;
28009;SDS011;15334;49.494;8.410;2023-07-08T00:17:09;15.77;;;5.93;;
28009;SDS011;15334;49.494;8.410;2023-07-08T00:19:40;13.45;;;6.75;;
28009;SDS011;15334;49.494;8.410;2023-07-08T00:22:09;16.30;;;6.90;;
28009;SDS011;15334;49.494;8.410;2023-07-08T00:24:41;15.43;;;6.50;;
28009;SDS011;15334;49.494;8.410;2023-07-08T00:27:11;14.35;;;6.32;;
28009;SDS011;15334;49.494;8.410;2023-07-08T00:29:40;15.82;;;7.07;;
28009;SDS011;15334;49.494;8.410;2023-07-08T00:32:10;16.23;;;6.72;;
28009;SDS011;15334;49.494;8.410;2023-07-08T00:34:40;14.85;;;7.03;;
28009;SDS011;15334;49.494;8.410;2023-07-08T00:37:09;16.00;;;6.25;;
28009;SDS011;15334;49.494;8.410;2023-07-08T00:39:39;15.82;;;6.55;;
28009;SDS011;15334;49.494;8.410;2023-07-08T00:42:13;15.95;;;6.43;;
28009;SDS011;15334;49.494;8.410;2023-07-08T00:44:43;13.98;;;5.70;;
28009;SDS011;15334;49.494;8.410;2023-07-08T00:47:12;17.38;;;7.35;;
28009;SDS011;15334;49.494;8.410;2023-07-08T00:49:43;16.48;;;7.00;;
28009;SDS011;15334;49.494;8.410;2023-07-08T00:52:22;14.60;;;6.28;;
28009;SDS011;15334;49.494;8.410;2023-07-08T00:54:52;16.98;;;6.50;;
28009;SDS011;15334;49.494;8.410;2023-07-08T00:57:22;14.73;;;7.00;;
28009;SDS011;15334;49.494;8.410;2023-07-08T00:59:55;14.52;;;6.90;;
28009;SDS011;15334;49.494;8.410;2023-07-08T01:02:27;14.23;;;5.90;;
28009;SDS011;15334;49.494;8.410;2023-07-08T01:04:56;14.38;;;6.47;;
28009;SDS011;15334;49.494;8.410;2023-07-08T01:07:28;17.15;;;7.35;;
28009;SDS011;15334;49.494;8.410;2023-07-08T01:10:00;16.60;;;8.07;;
28009;SDS011;15334;49.494;8.410;2023-07-08T01:12:34;17.50;;;7.38;;
28009;SDS011;15334;49.494;8.410;2023-07-08T01:15:05;16.02;;;6.72;;
28009;SDS011;15334;49.494;8.410;2023-07-08T01:17:36;15.15;;;6.47;;
28009;SDS011;15334;49.494;8.410;2023-07-08T01:20:04;13.70;;;6.20;;
28009;SDS011;15334;49.494;8.410;2023-07-08T01:22:40;16.67;;;6.68;;
28009;SDS011;15334;49.494;8.410;2023-07-08T01:25:09;16.17;;;7.15;;
28009;SDS011;15334;49.494;8.410;2023-07-08T01:27:40;18.08;;;6.90;;
28009;SDS011;15334;49.494;8.410;2023-07-08T01:30:13;17.15;;;5.93;;
28009;SDS011;15334;49.494;8.410;2023-07-08T01:32:43;18.02;;;7.05;;
28009;SDS011;15334;49.494;8.410;2023-07-08T01:35:15;17.85;;;6.63;;
28009;SDS011;15334;49.494;8.410;2023-07-08T01:37:48;18.95;;;7.50;;
28009;SDS011;15334;49.494;8.410;2023-07-08T01:40:26;13.23;;;6.75;;
28009;SDS011;15334;49.494;8.410;2023-07-08T01:42:55;16.75;;;7.10;;
28009;SDS011;15334;49.494;8.410;2023-07-08T01:45:25;13.82;;;6.32;;
28009;SDS011;15334;49.494;8.410;2023-07-08T01:47:57;13.35;;;6.40;;
28009;SDS011;15334;49.494;8.410;2023-07-08T01:50:28;15.90;;;6.57;;
28009;SDS011;15334;49.494;8.410;2023-07-08T01:53:00;15.32;;;6.75;;
28009;SDS011;15334;49.494;8.410;2023-07-08T01:55:34;19.08;;;6.72;;
28009;SDS011;15334;49.494;8.410;2023-07-08T01:58:02;15.55;;;6.10;;
28009;SDS011;15334;49.494;8.410;2023-07-08T02:00:30;13.60;;;6.25;;
28009;SDS011;15334;49.494;8.410;2023-07-08T02:02:58;13.68;;;6.03;;
28009;SDS011;15334;49.494;8.410;2023-07-08T02:05:26;16.90;;;5.97;;
28009;SDS011;15334;49.494;8.410;2023-07-08T02:07:54;12.82;;;5.88;;
28009;SDS011;15334;49.494;8.410;2023-07-08T02:10:24;10.98;;;5.25;;
28009;SDS011;15334;49.494;8.410;2023-07-08T02:12:52;13.75;;;5.30;;
28009;SDS011;15334;49.494;8.410;2023-07-08T02:15:20;15.98;;;5.97;;
28009;SDS011;15334;49.494;8.410;2023-07-08T02:17:48;14.30;;;6.65;;
28009;SDS011;15334;49.494;8.410;2023-07-08T02:20:16;14.75;;;6.90;;
28009;SDS011;15334;49.494;8.410;2023-07-08T02:22:44;13.35;;;5.90;;
28009;SDS011;15334;49.494;8.410;2023-07-08T02:25:13;14.55;;;6.45;;
28009;SDS011;15334;49.494;8.410;2023-07-08T02:27:43;10.45;;;5.43;;
28009;SDS011;15334;49.494;8.410;2023-07-08T02:30:11;13.02;;;5.50;;
28009;SDS011;15334;49.494;8.410;2023-07-08T02:32:39;19.50;;;5.90;;
28009;SDS011;15334;49.494;8.410;2023-07-08T02:35:07;19.70;;;6.28;;
28009;SDS011;15334;49.494;8.410;2023-07-08T02:37:36;15.13;;;6.55;;
28009;SDS011;15334;49.494;8.410;2023-07-08T02:40:04;12.90;;;6.18;;
28009;SDS011;15334;49.494;8.410;2023-07-08T02:42:33;18.10;;;6.68;;
28009;SDS011;15334;49.494;8.410;2023-07-08T02:45:03;15.52;;;6.93;;
28009;SDS011;15334;49.494;8.410;2023-07-08T02:47:31;12.95;;;6.60;;
28009;SDS011;15334;49.494;8.410;2023-07-08T02:49:59;14.15;;;6.32;;
28009;SDS011;15334;49.494;8.410;2023-07-08T02:52:27;15.38;;;6.25;;
28009;SDS011;15334;49.494;8.410;2023-07-08T02:54:55;12.15;;;6.78;;
28009;SDS011;15334;49.494;8.410;2023-07-08T02:57:23;15.95;;;6.75;;
28009;SDS011;15334;49.494;8.410;2023-07-08T02:59:51;17.08;;;6.30;;
28009;SDS011;15334;49.494;8.410;2023-07-08T03:02:20;13.02;;;6.10;;
28009;SDS011;15334;49.494;8.410;2023-07-08T03:04:48;11.23;;;5.95;;
28009;SDS011;15334;49.494;8.410;2023-07-08T03:07:17;17.83;;;6.63;;
28009;SDS011;15334;49.494;8.410;2023-07-08T03:09:45;19.50;;;5.95;;
28009;SDS011;15334;49.494;8.410;2023-07-08T03:12:13;12.82;;;6.25;;
28009;SDS011;15334;49.494;8.410;2023-07-08T03:14:40;14.95;;;6.38;;
28009;SDS011;15334;49.494;8.410;2023-07-08T03:17:08;16.23;;;7.20;;
28009;SDS011;15334;49.494;8.410;2023-07-08T03:19:38;14.65;;;7.32;;
28009;SDS011;15334;49.494;8.410;2023-07-08T03:22:06;22.15;;;6.70;;
28009;SDS011;15334;49.494;8.410;2023-07-08T03:24:34;17.98;;;6.57;;
28009;SDS011;15334;49.494;8.410;2023-07-08T03:27:02;19.35;;;7.03;;
28009;SDS011;15334;49.494;8.410;2023-07-08T03:29:31;13.30;;;6.15;;
28009;SDS011;15334;49.494;8.410;2023-07-08T03:31:59;16.88;;;6.72;;
28009;SDS011;15334;49.494;8.410;2023-07-08T03:34:27;17.20;;;6.80;;
28009;SDS011;15334;49.494;8.410;2023-07-08T03:36:56;18.45;;;6.70;;
28009;SDS011;15334;49.494;8.410;2023-07-08T03:39:24;17.00;;;6.95;;
28009;SDS011;15334;49.494;8.410;2023-07-08T03:41:53;16.80;;;6.85;;
28009;SDS011;15334;49.494;8.410;2023-07-08T03:44:21;14.73;;;6.78;;
28009;SDS011;15334;49.494;8.410;2023-07-08T03:46:49;16.38;;;6.18;;
28009;SDS011;15334;49.494;8.410;2023-07-08T03:49:17;13.55;;;6.45;;
28009;SDS011;15334;49.494;8.410;2023-07-08T03:51:48;16.33;;;6.57;;
28009;SDS011;15334;49.494;8.410;2023-07-08T03:54:19;16.88;;;6.15;;
28009;SDS011;15334;49.494;8.410;2023-07-08T03:56:47;19.58;;;7.07;;
28009;SDS011;15334;49.494;8.410;2023-07-08T03:59:15;14.73;;;6.80;;
28009;SDS011;15334;49.494;8.410;2023-07-08T04:01:44;15.60;;;6.47;;
28009;SDS011;15334;49.494;8.410;2023-07-08T04:04:13;15.20;;;6.80;;
28009;SDS011;15334;49.494;8.410;2023-07-08T04:06:42;13.73;;;6.50;;
28009;SDS011;15334;49.494;8.410;2023-07-08T04:09:11;14.13;;;5.88;;
28009;SDS011;15334;49.494;8.410;2023-07-08T04:11:41;15.60;;;7.25;;
28009;SDS011;15334;49.494;8.410;2023-07-08T04:14:09;15.68;;;7.22;;
28009;SDS011;15334;49.494;8.410;2023-07-08T04:16:42;15.32;;;5.82;;
28009;SDS011;15334;49.494;8.410;2023-07-08T04:19:14;15.35;;;6.65;;
28009;SDS011;15334;49.494;8.410;2023-07-08T04:21:43;16.15;;;6.88;;
28009;SDS011;15334;49.494;8.410;2023-07-08T04:24:12;15.48;;;7.93;;
28009;SDS011;15334;49.494;8.410;2023-07-08T04:26:43;12.90;;;6.00;;
28009;SDS011;15334;49.494;8.410;2023-07-08T04:29:13;14.38;;;6.40;;
28009;SDS011;15334;49.494;8.410;2023-07-08T04:31:42;12.75;;;5.75;;
28009;SDS011;15334;49.494;8.410;2023-07-08T04:34:11;14.18;;;6.55;;
28009;SDS011;15334;49.494;8.410;2023-07-08T04:36:39;15.63;;;7.20;;
28009;SDS011;15334;49.494;8.410;2023-07-08T04:39:07;12.80;;;6.55;;
28009;SDS011;15334;49.494;8.410;2023-07-08T04:41:35;15.73;;;7.00;;
28009;SDS011;15334;49.494;8.410;2023-07-08T04:44:09;13.30;;;6.20;;
28009;SDS011;15334;49.494;8.410;2023-07-08T04:46:38;13.13;;;6.57;;
28009;SDS011;15334;49.494;8.410;2023-07-08T04:49:10;12.45;;;6.07;;
28009;SDS011;15334;49.494;8.410;2023-07-08T04:51:39;13.65;;;6.30;;
28009;SDS011;15334;49.494;8.410;2023-07-08T04:54:08;17.58;;;7.00;;
28009;SDS011;15334;49.494;8.410;2023-07-08T04:56:37;15.38;;;6.35;;
28009;SDS011;15334;49.494;8.410;2023-07-08T04:59:09;14.65;;;6.70;;
28009;SDS011;15334;49.494;8.410;2023-07-08T05:01:37;18.17;;;6.65;;
28009;SDS011;15334;49.494;8.410;2023-07-08T05:04:05;13.27;;;5.85;;
28009;SDS011;15334;49.494;8.410;2023-07-08T05:06:34;13.55;;;6.25;;
28009;SDS011;15334;49.494;8.410;2023-07-08T05:09:04;16.10;;;6.47;;
28009;SDS011;15334;49.494;8.410;2023-07-08T05:11:32;15.60;;;6.30;;
28009;SDS011;15334;49.494;8.410;2023-07-08T05:14:00;18.90;;;6.20;;
28009;SDS011;15334;49.494;8.410;2023-07-08T05:16:32;14.48;;;5.90;;
28009;SDS011;15334;49.494;8.410;2023-07-08T05:19:02;16.08;;;6.53;;
28009;SDS011;15334;49.494;8.410;2023-07-08T05:21:30;19.52;;;6.82;;
28009;SDS011;15334;49.494;8.410;2023-07-08T05:24:00;11.95;;;5.95;;
28009;SDS011;15334;49.494;8.410;2023-07-08T05:26:28;17.30;;;6.13;;
28009;SDS011;15334;49.494;8.410;2023-07-08T05:28:57;13.27;;;5.70;;
28009;SDS011;15334;49.494;8.410;2023-07-08T05:31:25;11.55;;;5.65;;
28009;SDS011;15334;49.494;8.410;2023-07-08T05:34:14;11.63;;;5.95;;
28009;SDS011;15334;49.494;8.410;2023-07-08T05:36:42;15.35;;;6.05;;
28009;SDS011;15334;49.494;8.410;2023-07-08T05:39:11;17.20;;;6.40;;
28009;SDS011;15334;49.494;8.410;2023-07-08T05:41:38;11.68;;;5.95;;
28009;SDS011;15334;49.494;8.410;2023-07-08T05:44:06;10.07;;;5.55;;
28009;SDS011;15334;49.494;8.410;2023-07-08T05:46:34;14.55;;;6.88;;
28009;SDS011;15334;49.494;8.410;2023-07-08T05:49:02;14.88;;;5.75;;
28009;SDS011;15334;49.494;8.410;2023-07-08T05:51:33;11.38;;;5.60;;
28009;SDS011;15334;49.494;8.410;2023-07-08T05:54:04;11.68;;;5.22;;
28009;SDS011;15334;49.494;8.410;2023-07-08T05:57:05;11.30;;;5.80;;
28009;SDS011;15334;49.494;8.410;2023-07-08T05:59:34;12.88;;;5.43;;
28009;SDS011;15334;49.494;8.410;2023-07-08T06:02:30;13.55;;;5.60;;
28009;SDS011;15334;49.494;8.410;2023-07-08T06:04:58;10.82;;;5.28;;
28009;SDS011;15334;49.494;8.410;2023-07-08T06:07:27;11.48;;;5.57;;
28009;SDS011;15334;49.494;8.410;2023-07-08T06:09:55;12.15;;;5.75;;
28009;SDS011;15334;49.494;8.410;2023-07-08T06:12:23;10.60;;;5.55;;
28009;SDS011;15334;49.494;8.410;2023-07-08T06:14:51;13.18;;;5.53;;
28009;SDS011;15334;49.494;8.410;2023-07-08T06:17:22;11.02;;;5.15;;
28009;SDS011;15334;49.494;8.410;2023-07-08T06:19:53;13.32;;;6.45;;
28009;SDS011;15334;49.494;8.410;2023-07-08T06:22:34;13.93;;;5.57;;
28009;SDS011;15334;49.494;8.410;2023-07-08T06:25:13;15.20;;;5.45;;
28009;SDS011;15334;49.494;8.410;2023-07-08T06:27:41;13.73;;;6.13;;
28009;SDS011;15334;49.494;8.410;2023-07-08T06:30:09;13.55;;;6.05;;
28009;SDS011;15334;49.494;8.410;2023-07-08T06:32:39;12.00;;;5.78;;
28009;SDS011;15334;49.494;8.410;2023-07-08T06:35:10;13.73;;;5.47;;
28009;SDS011;15334;49.494;8.410;2023-07-08T06:37:39;12.02;;;5.07;;
28009;SDS011;15334;49.494;8.410;2023-07-08T06:40:07;14.00;;;5.05;;
28009;SDS011;15334;49.494;8.410;2023-07-08T06:42:36;11.85;;;5.65;;
28009;SDS011;15334;49.494;8.410;2023-07-08T06:45:04;13.27;;;4.90;;
28009;SDS011;15334;49.494;8.410;2023-07-08T06:47:32;12.80;;;5.35;;
28009;SDS011;15334;49.494;8.410;2023-07-08T06:50:00;11.38;;;4.80;;
28009;SDS011;15334;49.494;8.410;2023-07-08T06:52:28;10.38;;;5.15;;
28009;SDS011;15334;49.494;8.410;2023-07-08T06:55:03;12.50;;;5.60;;
28009;SDS011;15334;49.494;8.410;2023-07-08T06:57:38;8.95;;;3.92;;
28009;SDS011;15334;49.494;8.410;2023-07-08T07:00:06;10.52;;;4.63;;
28009;SDS011;15334;49.494;8.410;2023-07-08T07:02:36;11.52;;;5.30;;
28009;SDS011;15334;49.494;8.410;2023-07-08T07:05:04;10.45;;;4.65;;
28009;SDS011;15334;49.494;8.410;2023-07-08T07:07:33;8.70;;;4.70;;
28009;SDS011;15334;49.494;8.410;2023-07-08T07:10:03;8.75;;;4.78;;
28009;SDS011;15334;49.494;8.410;2023-07-08T07:12:32;12.10;;;4.40;;
28009;SDS011;15334;49.494;8.410;2023-07-08T07:15:00;12.95;;;4.78;;
28009;SDS011;15334;49.494;8.410;2023-07-08T07:17:28;9.43;;;4.22;;
28009;SDS011;15334;49.494;8.410;2023-07-08T07:19:56;9.75;;;4.47;;
28009;SDS011;15334;49.494;8.410;2023-07-08T07:22:24;9.82;;;4.70;;
28009;SDS011;15334;49.494;8.410;2023-07-08T07:24:52;10.85;;;4.85;;
28009;SDS011;15334;49.494;8.410;2023-07-08T07:27:21;11.25;;;4.90;;
28009;SDS011;15334;49.494;8.410;2023-07-08T07:29:50;8.50;;;4.65;;
28009;SDS011;15334;49.494;8.410;2023-07-08T07:32:21;9.30;;;4.60;;
28009;SDS011;15334;49.494;8.410;2023-07-08T07:34:50;12.15;;;4.32;;
28009;SDS011;15334;49.494;8.410;2023-07-08T07:37:19;9.45;;;4.78;;
28009;SDS011;15334;49.494;8.410;2023-07-08T07:39:48;9.40;;;4.38;;
28009;SDS011;15334;49.494;8.410;2023-07-08T07:42:18;9.55;;;3.97;;
28009;SDS011;15334;49.494;8.410;2023-07-08T07:44:48;9.98;;;4.57;;
28009;SDS011;15334;49.494;8.410;2023-07-08T07:47:16;11.35;;;4.60;;
28009;SDS011;15334;49.494;8.410;2023-07-08T07:49:44;12.85;;;3.97;;
28009;SDS011;15334;49.494;8.410;2023-07-08T07:52:12;9.00;;;3.67;;
28009;SDS011;15334;49.494;8.410;2023-07-08T07:54:39;8.98;;;3.72;;
28009;SDS011;15334;49.494;8.410;2023-07-08T07:57:07;8.65;;;3.55;;
28009;SDS011;15334;49.494;8.410;2023-07-08T07:59:35;8.95;;;3.28;;
28009;SDS011;15334;49.494;8.410;2023-07-08T08:02:05;8.48;;;3.88;;
28009;SDS011;15334;49.494;8.410;2023-07-08T08:04:33;9.43;;;3.78;;
28009;SDS011;15334;49.494;8.410;2023-07-08T08:07:02;8.93;;;3.90;;
28009;SDS011;15334;49.494;8.410;2023-07-08T08:09:30;10.73;;;3.45;;
28009;SDS011;15334;49.494;8.410;2023-07-08T08:11:58;8.05;;;3.80;;
28009;SDS011;15334;49.494;8.410;2023-07-08T08:14:28;9.27;;;3.90;;
28009;SDS011;15334;49.494;8.410;2023-07-08T08:16:56;7.25;;;3.47;;
28009;SDS011;15334;49.494;8.410;2023-07-08T08:19:25;9.48;;;3.83;;
28009;SDS011;15334;49.494;8.410;2023-07-08T08:21:53;6.70;;;3.35;;
28009;SDS011;15334;49.494;8.410;2023-07-08T08:24:21;7.97;;;3.10;;
28009;SDS011;15334;49.494;8.410;2023-07-08T08:26:51;6.03;;;2.90;;
28009;SDS011;15334;49.494;8.410;2023-07-08T08:29:19;8.32;;;3.45;;
28009;SDS011;15334;49.494;8.410;2023-07-08T08:31:47;8.05;;;3.00;;
28009;SDS011;15334;49.494;8.410;2023-07-08T08:34:16;7.22;;;2.85;;
28009;SDS011;15334;49.494;8.410;2023-07-08T08:36:46;6.57;;;3.08;;
28009;SDS011;15334;49.494;8.410;2023-07-08T08:39:14;11.15;;;3.35;;
28009;SDS011;15334;49.494;8.410;2023-07-08T08:41:42;9.18;;;3.60;;
28009;SDS011;15334;49.494;8.410;2023-07-08T08:44:12;6.63;;;2.63;;
28009;SDS011;15334;49.494;8.410;2023-07-08T08:46:45;9.27;;;3.58;;
28009;SDS011;15334;49.494;8.410;2023-07-08T08:49:23;6.65;;;2.78;;
28009;SDS011;15334;49.494;8.410;2023-07-08T08:51:59;6.15;;;2.95;;
28009;SDS011;15334;49.494;8.410;2023-07-08T08:54:43;8.45;;;2.75;;
28009;SDS011;15334;49.494;8.410;2023-07-08T08:57:20;6.78;;;2.78;;
28009;SDS011;15334;49.494;8.410;2023-07-08T08:59:59;9.27;;;3.53;;
28009;SDS011;15334;49.494;8.410;2023-07-08T09:02:30;10.05;;;2.92;;
28009;SDS011;15334;49.494;8.410;2023-07-08T09:05:02;11.05;;;3.17;;
28009;SDS011;15334;49.494;8.410;2023-07-08T09:07:41;6.25;;;3.13;;
28009;SDS011;15334;49.494;8.410;2023-07-08T09:10:39;8.77;;;2.90;;
28009;SDS011;15334;49.494;8.410;2023-07-08T09:13:12;8.13;;;3.25;;
28009;SDS011;15334;49.494;8.410;2023-07-08T09:15:47;8.15;;;3.20;;
28009;SDS011;15334;49.494;8.410;2023-07-08T09:18:19;5.75;;;2.70;;
28009;SDS011;15334;49.494;8.410;2023-07-08T09:20:55;8.80;;;3.83;;
28009;SDS011;15334;49.494;8.410;2023-07-08T09:23:27;6.82;;;3.05;;
28009;SDS011;15334;49.494;8.410;2023-07-08T09:26:01;6.07;;;2.72;;
28009;SDS011;15334;49.494;8.410;2023-07-08T09:28:36;7.72;;;2.78;;
28009;SDS011;15334;49.494;8.410;2023-07-08T09:31:06;7.00;;;3.45;;
28009;SDS011;15334;49.494;8.410;2023-07-08T09:33:37;8.65;;;3.03;;
28009;SDS011;15334;49.494;8.410;2023-07-08T09:36:15;9.20;;;3.45;;
28009;SDS011;15334;49.494;8.410;2023-07-08T09:38:48;9.57;;;3.08;;
28009;SDS011;15334;49.494;8.410;2023-07-08T09:41:30;8.27;;;3.30;;
28009;SDS011;15334;49.494;8.410;2023-07-08T09:44:06;8.38;;;3.05;;
28009;SDS011;15334;49.494;8.410;2023-07-08T09:46:41;8.55;;;3.00;;
28009;SDS011;15334;49.494;8.410;2023-07-08T09:49:18;8.07;;;2.70;;
28009;SDS011;15334;49.494;8.410;2023-07-08T09:51:49;9.57;;;3.25;;
28009;SDS011;15334;49.494;8.410;2023-07-08T09:54:19;10.13;;;3.17;;
28009;SDS011;15334;49.494;8.410;2023-07-08T09:56:52;5.63;;;2.80;;
28009;SDS011;15334;49.494;8.410;2023-07-08T09:59:27;9.45;;;2.90;;
28009;SDS011;15334;49.494;8.410;2023-07-08T10:01:59;9.05;;;3.03;;
28009;SDS011;15334;49.494;8.410;2023-07-08T10:04:29;6.50;;;3.25;;
28009;SDS011;15334;49.494;8.410;2023-07-08T10:06:59;6.90;;;2.85;;
28009;SDS011;15334;49.494;8.410;2023-07-08T10:09:28;7.10;;;3.17;;
28009;SDS011;15334;49.494;8.410;2023-07-08T10:12:00;8.07;;;3.17;;
28009;SDS011;15334;49.494;8.410;2023-07-08T10:14:31;6.57;;;2.95;;
28009;SDS011;15334;49.494;8.410;2023-07-08T10:17:02;7.43;;;2.67;;
28009;SDS011;15334;49.494;8.410;2023-07-08T10:19:30;7.57;;;3.13;;
28009;SDS011;15334;49.494;8.410;2023-07-08T10:22:04;7.68;;;3.30;;
28009;SDS011;15334;49.494;8.410;2023-07-08T10:24:51;10.73;;;3.70;;
28009;SDS011;15334;49.494;8.410;2023-07-08T10:27:29;8.82;;;3.53;;
28009;SDS011;15334;49.494;8.410;2023-07-08T10:32:55;9.90;;;4.25;;
28009;SDS011;15334;49.494;8.410;2023-07-08T10:35:35;8.80;;;3.42;;
28009;SDS011;15334;49.494;8.410;2023-07-08T10:38:13;8.35;;;3.58;;
28009;SDS011;15334;49.494;8.410;2023-07-08T10:41:00;8.52;;;3.53;;
28009;SDS011;15334;49.494;8.410;2023-07-08T10:43:33;8.07;;;3.60;;
28009;SDS011;15334;49.494;8.410;2023-07-08T10:46:17;10.82;;;3.80;;
28009;SDS011;15334;49.494;8.410;2023-07-08T10:48:56;7.75;;;3.47;;
28009;SDS011;15334;49.494;8.410;2023-07-08T10:51:40;7.70;;;3.42;;
28009;SDS011;15334;49.494;8.410;2023-07-08T10:57:17;9.00;;;3.60;;
28009;SDS011;15334;49.494;8.410;2023-07-08T11:00:06;10.10;;;4.07;;
28009;SDS011;15334;49.494;8.410;2023-07-08T11:03:00;8.50;;;3.03;;
28009;SDS011;15334;49.494;8.410;2023-07-08T11:05:58;5.60;;;2.83;;
28009;SDS011;15334;49.494;8.410;2023-07-08T11:08:29;6.22;;;3.35;;
28009;SDS011;15334;49.494;8.410;2023-07-08T11:11:01;6.88;;;3.20;;
28009;SDS011;15334;49.494;8.410;2023-07-08T11:13:44;7.10;;;3.47;;
28009;SDS011;15334;49.494;8.410;2023-07-08T11:16:17;10.65;;;3.47;;
28009;SDS011;15334;49.494;8.410;2023-07-08T11:18:52;9.48;;;3.22;;
28009;SDS011;15334;49.494;8.410;2023-07-08T11:21:26;6.20;;;3.28;;
28009;SDS011;15334;49.494;8.410;2023-07-08T11:23:59;10.00;;;4.13;;
28009;SDS011;15334;49.494;8.410;2023-07-08T11:26:33;9.23;;;3.45;;
28009;SDS011;15334;49.494;8.410;2023-07-08T11:29:14;13.90;;;3.35;;
28009;SDS011;15334;49.494;8.410;2023-07-08T11:31:53;7.15;;;3.03;;
28009;SDS011;15334;49.494;8.410;2023-07-08T11:35:39;6.35;;;3.15;;
28009;SDS011;15334;49.494;8.410;2023-07-08T11:38:10;5.82;;;3.03;;
28009;SDS011;15334;49.494;8.410;2023-07-08T11:41:25;11.38;;;3.80;;
28009;SDS011;15334;49.494;8.410;2023-07-08T11:43:56;6.93;;;3.30;;
28009;SDS011;15334;49.494;8.410;2023-07-08T11:46:28;9.43;;;3.50;;
28009;SDS011;15334;49.494;8.410;2023-07-08T11:49:00;13.38;;;3.65;;
28009;SDS011;15334;49.494;8.410;2023-07-08T11:51:30;7.95;;;3.67;;
28009;SDS011;15334;49.494;8.410;2023-07-08T11:54:10;10.60;;;3.42;;
28009;SDS011;15334;49.494;8.410;2023-07-08T11:56:57;6.82;;;3.00;;
28009;SDS011;15334;49.494;8.410;2023-07-08T11:59:36;11.40;;;3.08;;
28009;SDS011;15334;49.494;8.410;2023-07-08T12:02:11;8.47;;;3.53;;
28009;SDS011;15334;49.494;8.410;2023-07-08T12:04:55;10.80;;;3.53;;
28009;SDS011;15334;49.494;8.410;2023-07-08T12:07:30;6.90;;;3.80;;
28009;SDS011;15334;49.494;8.410;2023-07-08T12:10:03;6.53;;;3.25;;
28009;SDS011;15334;49.494;8.410;2023-07-08T12:12:35;4.95;;;3.15;;
28009;SDS011;15334;49.494;8.410;2023-07-08T12:15:09;8.27;;;3.30;;
28009;SDS011;15334;49.494;8.410;2023-07-08T12:17:42;8.43;;;3.50;;
28009;SDS011;15334;49.494;8.410;2023-07-08T12:20:15;6.13;;;3.17;;
28009;SDS011;15334;49.494;8.410;2023-07-08T12:22:46;6.43;;;3.15;;
28009;SDS011;15334;49.494;8.410;2023-07-08T12:25:14;8.93;;;3.40;;
28009;SDS011;15334;49.494;8.410;2023-07-08T12:27:45;6.70;;;2.70;;
28009;SDS011;15334;49.494;8.410;2023-07-08T12:30:14;6.88;;;2.65;;
28009;SDS011;15334;49.494;8.410;2023-07-08T12:32:44;7.90;;;3.08;;
28009;SDS011;15334;49.494;8.410;2023-07-08T12:35:17;10.38;;;3.45;;
28009;SDS011;15334;49.494;8.410;2023-07-08T12:37:50;5.40;;;3.10;;
28009;SDS011;15334;49.494;8.410;2023-07-08T12:40:20;6.72;;;3.75;;
28009;SDS011;15334;49.494;8.410;2023-07-08T12:42:49;7.43;;;3.30;;
28009;SDS011;15334;49.494;8.410;2023-07-08T12:45:17;9.23;;;3.17;;
28009;SDS011;15334;49.494;8.410;2023-07-08T12:47:49;9.90;;;3.25;;
28009;SDS011;15334;49.494;8.410;2023-07-08T12:50:24;10.52;;;3.45;;
28009;SDS011;15334;49.494;8.410;2023-07-08T12:52:55;8.68;;;3.17;;
28009;SDS011;15334;49.494;8.410;2023-07-08T12:55:23;11.77;;;3.53;;
28009;SDS011;15334;49.494;8.410;2023-07-08T12:57:56;7.90;;;3.08;;
28009;SDS011;15334;49.494;8.410;2023-07-08T13:00:27;8.68;;;3.53;;
28009;SDS011;15334;49.494;8.410;2023-07-08T13:03:00;5.65;;;3.15;;
28009;SDS011;15334;49.494;8.410;2023-07-08T13:05:32;6.57;;;2.95;;
28009;SDS011;15334;49.494;8.410;2023-07-08T13:08:01;6.85;;;3.42;;
28009;SDS011;15334;49.494;8.410;2023-07-08T13:10:29;5.82;;;2.75;;
28009;SDS011;15334;49.494;8.410;2023-07-08T13:12:59;7.68;;;3.15;;
28009;SDS011;15334;49.494;8.410;2023-07-08T13:15:31;6.65;;;3.50;;
28009;SDS011;15334;49.494;8.410;2023-07-08T13:18:04;6.45;;;2.88;;
28009;SDS011;15334;49.494;8.410;2023-07-08T13:20:33;7.82;;;3.22;;
28009;SDS011;15334;49.494;8.410;2023-07-08T13:23:02;5.35;;;2.80;;
28009;SDS011;15334;49.494;8.410;2023-07-08T13:25:31;6.82;;;2.97;;
28009;SDS011;15334;49.494;8.410;2023-07-08T13:28:00;8.30;;;3.45;;
28009;SDS011;15334;49.494;8.410;2023-07-08T13:30:48;7.10;;;3.53;;
28009;SDS011;15334;49.494;8.410;2023-07-08T13:33:19;8.80;;;3.22;;
28009;SDS011;15334;49.494;8.410;2023-07-08T13:35:47;6.28;;;2.97;;
28009;SDS011;15334;49.494;8.410;2023-07-08T13:38:18;9.20;;;3.97;;
28009;SDS011;15334;49.494;8.410;2023-07-08T13:40:48;5.40;;;2.90;;
28009;SDS011;15334;49.494;8.410;2023-07-08T13:43:22;5.25;;;2.67;;
28009;SDS011;15334;49.494;8.410;2023-07-08T13:45:52;6.53;;;3.17;;
28009;SDS011;15334;49.494;8.410;2023-07-08T13:48:23;6.55;;;3.13;;
28009;SDS011;15334;49.494;8.410;2023-07-08T13:50:55;8.18;;;3.22;;
28009;SDS011;15334;49.494;8.410;2023-07-08T13:53:27;7.85;;;3.28;;
28009;SDS011;15334;49.494;8.410;2023-07-08T13:56:02;8.80;;;3.13;;
28009;SDS011;15334;49.494;8.410;2023-07-08T13:58:31;7.47;;;3.60;;
28009;SDS011;15334;49.494;8.410;2023-07-08T14:00:59;5.28;;;2.80;;
28009;SDS011;15334;49.494;8.410;2023-07-08T14:03:29;7.80;;;2.80;;
28009;SDS011;15334;49.494;8.410;2023-07-08T14:05:57;8.57;;;3.00;;
28009;SDS011;15334;49.494;8.410;2023-07-08T14:08:24;8.07;;;4.07;;
28009;SDS011;15334;49.494;8.410;2023-07-08T14:10:53;7.20;;;2.83;;
28009;SDS011;15334;49.494;8.410;2023-07-08T14:13:21;6.10;;;2.80;;
28009;SDS011;15334;49.494;8.410;2023-07-08T14:15:49;5.43;;;2.83;;
28009;SDS011;15334;49.494;8.410;2023-07-08T14:18:17;7.35;;;2.70;;
28009;SDS011;15334;49.494;8.410;2023-07-08T14:20:46;6.22;;;2.42;;
28009;SDS011;15334;49.494;8.410;2023-07-08T14:23:14;5.82;;;2.58;;
28009;SDS011;15334;49.494;8.410;2023-07-08T14:25:44;5.28;;;2.92;;
28009;SDS011;15334;49.494;8.410;2023-07-08T14:28:11;7.70;;;3.33;;
28009;SDS011;15334;49.494;8.410;2023-07-08T14:30:41;9.10;;;2.42;;
28009;SDS011;15334;49.494;8.410;2023-07-08T14:33:11;5.25;;;2.15;;
28009;SDS011;15334;49.494;8.410;2023-07-08T14:35:39;5.18;;;2.42;;
28009;SDS011;15334;49.494;8.410;2023-07-08T14:38:11;6.93;;;2.42;;
28009;SDS011;15334;49.494;8.410;2023-07-08T14:40:41;13.30;;;3.30;;
28009;SDS011;15334;49.494;8.410;2023-07-08T14:43:11;5.65;;;2.72;;
28009;SDS011;15334;49.494;8.410;2023-07-08T14:45:46;3.90;;;2.35;;
28009;SDS011;15334;49.494;8.410;2023-07-08T14:48:16;7.22;;;2.95;;
28009;SDS011;15334;49.494;8.410;2023-07-08T14:50:47;7.68;;;2.78;;
28009;SDS011;15334;49.494;8.410;2023-07-08T14:53:16;7.03;;;2.83;;
28009;SDS011;15334;49.494;8.410;2023-07-08T14:55:47;5.28;;;2.28;;
28009;SDS011;15334;49.494;8.410;2023-07-08T14:58:17;6.22;;;2.42;;
28009;SDS011;15334;49.494;8.410;2023-07-08T15:00:49;7.68;;;3.50;;
28009;SDS011;15334;49.494;8.410;2023-07-08T15:03:18;5.25;;;2.42;;
28009;SDS011;15334;49.494;8.410;2023-07-08T15:05:46;7.18;;;2.28;;
28009;SDS011;15334;49.494;8.410;2023-07-08T15:08:14;7.95;;;2.88;;
28009;SDS011;15334;49.494;8.410;2023-07-08T15:10:44;5.25;;;2.50;;
28009;SDS011;15334;49.494;8.410;2023-07-08T15:13:15;6.78;;;2.72;;